sensor_id;sensor_type;location;lat;lon;timestamp;temperature;humidity
19174;DHT22;9719;49.322;8.536;2023-02-11T00:04:56;0.80;98.20
19174;DHT22;9719;49.322;8.536;2023-02-11T00:09:58;1.00;98.40
19174;DHT22;9719;49.322;8.536;2023-02-11T00:15:02;1.30;99.00
19174;DHT22;9719;49.322;8.536;2023-02-11T00:20:06;1.60;98.60
19174;DHT22;9719;49.322;8.536;2023-02-11T00:25:08;1.90;98.30
19174;DHT22;9719;49.322;8.536;2023-02-11T00:30:10;2.10;97.80
19174;DHT22;9719;49.322;8.536;2023-02-11T00:35:13;2.30;97.30
19174;DHT22;9719;49.322;8.536;2023-02-11T00:40:15;2.40;97.30
19174;DHT22;9719;49.322;8.536;2023-02-11T00:45:16;2.60;97.10
19174;DHT22;9719;49.322;8.536;2023-02-11T00:50:21;2.70;97.10
19174;DHT22;9719;49.322;8.536;2023-02-11T00:55:23;2.80;96.70
19174;DHT22;9719;49.322;8.536;2023-02-11T01:00:25;2.80;96.50
19174;DHT22;9719;49.322;8.536;2023-02-11T01:05:28;2.90;96.50
19174;DHT22;9719;49.322;8.536;2023-02-11T01:10:30;3.00;96.40
19174;DHT22;9719;49.322;8.536;2023-02-11T01:15:32;2.90;96.50
19174;DHT22;9719;49.322;8.536;2023-02-11T01:20:35;2.90;96.50
19174;DHT22;9719;49.322;8.536;2023-02-11T01:25:37;2.90;96.50
19174;DHT22;9719;49.322;8.536;2023-02-11T01:30:39;2.90;96.20
19174;DHT22;9719;49.322;8.536;2023-02-11T01:35:42;2.80;96.30
19174;DHT22;9719;49.322;8.536;2023-02-11T01:40:48;2.70;96.70
19174;DHT22;9719;49.322;8.536;2023-02-11T01:45:59;2.70;97.20
19174;DHT22;9719;49.322;8.536;2023-02-11T01:51:05;2.70;97.20
19174;DHT22;9719;49.322;8.536;2023-02-11T01:56:09;2.80;97.30
19174;DHT22;9719;49.322;8.536;2023-02-11T02:01:30;2.80;97.30
19174;DHT22;9719;49.322;8.536;2023-02-11T02:06:39;2.90;97.10
19174;DHT22;9719;49.322;8.536;2023-02-11T02:11:43;3.00;97.20
19174;DHT22;9719;49.322;8.536;2023-02-11T02:16:45;3.00;96.80
19174;DHT22;9719;49.322;8.536;2023-02-11T02:22:11;3.10;96.80
19174;DHT22;9719;49.322;8.536;2023-02-11T02:27:35;3.20;97.10
19174;DHT22;9719;49.322;8.536;2023-02-11T02:32:46;3.20;96.80
19174;DHT22;9719;49.322;8.536;2023-02-11T02:37:54;3.10;96.90
19174;DHT22;9719;49.322;8.536;2023-02-11T02:42:57;3.10;96.80
19174;DHT22;9719;49.322;8.536;2023-02-11T02:48:02;3.00;97.00
19174;DHT22;9719;49.322;8.536;2023-02-11T02:53:17;2.90;97.10
19174;DHT22;9719;49.322;8.536;2023-02-11T02:58:45;2.90;97.40
19174;DHT22;9719;49.322;8.536;2023-02-11T03:04:00;2.70;97.90
19174;DHT22;9719;49.322;8.536;2023-02-11T03:09:07;2.70;98.30
19174;DHT22;9719;49.322;8.536;2023-02-11T03:14:15;2.70;98.80
19174;DHT22;9719;49.322;8.536;2023-02-11T03:19:21;2.70;99.60
19174;DHT22;9719;49.322;8.536;2023-02-11T03:24:28;2.80;98.50
19174;DHT22;9719;49.322;8.536;2023-02-11T03:29:35;2.80;99.00
19174;DHT22;9719;49.322;8.536;2023-02-11T03:34:44;2.80;98.80
19174;DHT22;9719;49.322;8.536;2023-02-11T03:39:51;2.80;98.80
19174;DHT22;9719;49.322;8.536;2023-02-11T03:44:58;2.80;98.50
19174;DHT22;9719;49.322;8.536;2023-02-11T03:50:05;2.90;98.40
19174;DHT22;9719;49.322;8.536;2023-02-11T03:55:11;3.00;98.40
19174;DHT22;9719;49.322;8.536;2023-02-11T04:00:14;3.10;98.20
19174;DHT22;9719;49.322;8.536;2023-02-11T04:05:17;3.10;98.00
19174;DHT22;9719;49.322;8.536;2023-02-11T04:10:19;3.10;98.10
19174;DHT22;9719;49.322;8.536;2023-02-11T04:15:20;3.00;97.90
19174;DHT22;9719;49.322;8.536;2023-02-11T04:20:23;3.00;97.90
19174;DHT22;9719;49.322;8.536;2023-02-11T04:25:25;3.10;98.00
19174;DHT22;9719;49.322;8.536;2023-02-11T04:30:27;3.10;98.40
19174;DHT22;9719;49.322;8.536;2023-02-11T04:35:30;3.10;98.10
19174;DHT22;9719;49.322;8.536;2023-02-11T04:40:32;3.20;98.00
19174;DHT22;9719;49.322;8.536;2023-02-11T04:45:34;3.20;97.80
19174;DHT22;9719;49.322;8.536;2023-02-11T04:50:37;3.30;97.70
19174;DHT22;9719;49.322;8.536;2023-02-11T04:55:38;3.30;97.90
19174;DHT22;9719;49.322;8.536;2023-02-11T05:00:40;3.20;98.00
19174;DHT22;9719;49.322;8.536;2023-02-11T05:05:43;3.10;98.20
19174;DHT22;9719;49.322;8.536;2023-02-11T05:10:45;3.00;98.40
19174;DHT22;9719;49.322;8.536;2023-02-11T05:15:47;3.00;98.50
19174;DHT22;9719;49.322;8.536;2023-02-11T05:20:50;2.80;98.70
19174;DHT22;9719;49.322;8.536;2023-02-11T05:25:52;2.70;99.20
19174;DHT22;9719;49.322;8.536;2023-02-11T05:30:54;2.60;98.70
19174;DHT22;9719;49.322;8.536;2023-02-11T05:35:58;2.50;99.10
19174;DHT22;9719;49.322;8.536;2023-02-11T05:41:01;2.30;99.10
19174;DHT22;9719;49.322;8.536;2023-02-11T05:46:03;2.10;99.30
19174;DHT22;9719;49.322;8.536;2023-02-11T05:51:06;2.00;99.20
19174;DHT22;9719;49.322;8.536;2023-02-11T05:56:08;1.80;99.90
19174;DHT22;9719;49.322;8.536;2023-02-11T06:01:09;1.70;99.90
19174;DHT22;9719;49.322;8.536;2023-02-11T06:06:12;1.60;99.90
19174;DHT22;9719;49.322;8.536;2023-02-11T06:11:15;1.50;99.90
19174;DHT22;9719;49.322;8.536;2023-02-11T06:16:17;1.50;99.90
19174;DHT22;9719;49.322;8.536;2023-02-11T06:21:20;1.60;99.90
19174;DHT22;9719;49.322;8.536;2023-02-11T06:26:22;1.80;99.90
19174;DHT22;9719;49.322;8.536;2023-02-11T06:31:24;2.00;99.90
19174;DHT22;9719;49.322;8.536;2023-02-11T06:36:27;2.20;99.90
19174;DHT22;9719;49.322;8.536;2023-02-11T06:41:29;2.40;99.90
19174;DHT22;9719;49.322;8.536;2023-02-11T06:46:30;2.50;99.90
19174;DHT22;9719;49.322;8.536;2023-02-11T06:51:33;2.60;99.90
19174;DHT22;9719;49.322;8.536;2023-02-11T06:56:37;2.70;99.90
19174;DHT22;9719;49.322;8.536;2023-02-11T07:01:39;2.70;99.90
19174;DHT22;9719;49.322;8.536;2023-02-11T07:06:42;2.70;99.90
19174;DHT22;9719;49.322;8.536;2023-02-11T07:11:44;2.70;99.70
19174;DHT22;9719;49.322;8.536;2023-02-11T07:16:45;2.70;99.80
19174;DHT22;9719;49.322;8.536;2023-02-11T07:21:48;2.60;99.70
19174;DHT22;9719;49.322;8.536;2023-02-11T07:26:50;2.70;99.60
19174;DHT22;9719;49.322;8.536;2023-02-11T07:31:53;2.60;99.70
19174;DHT22;9719;49.322;8.536;2023-02-11T07:36:56;2.70;99.50
19174;DHT22;9719;49.322;8.536;2023-02-11T07:41:58;2.70;99.40
19174;DHT22;9719;49.322;8.536;2023-02-11T07:46:59;2.70;99.10
19174;DHT22;9719;49.322;8.536;2023-02-11T07:52:02;2.70;99.10
19174;DHT22;9719;49.322;8.536;2023-02-11T07:57:04;2.80;99.00
19174;DHT22;9719;49.322;8.536;2023-02-11T08:02:06;2.80;99.10
19174;DHT22;9719;49.322;8.536;2023-02-11T08:07:11;3.00;99.00
19174;DHT22;9719;49.322;8.536;2023-02-11T08:12:14;3.20;98.70
19174;DHT22;9719;49.322;8.536;2023-02-11T08:17:16;3.40;97.90
19174;DHT22;9719;49.322;8.536;2023-02-11T08:22:19;3.60;97.30
19174;DHT22;9719;49.322;8.536;2023-02-11T08:27:20;3.80;97.20
19174;DHT22;9719;49.322;8.536;2023-02-11T08:32:22;4.00;96.60
19174;DHT22;9719;49.322;8.536;2023-02-11T08:37:26;4.20;95.90
19174;DHT22;9719;49.322;8.536;2023-02-11T08:42:27;4.40;95.40
19174;DHT22;9719;49.322;8.536;2023-02-11T08:47:29;4.70;94.70
19174;DHT22;9719;49.322;8.536;2023-02-11T08:52:32;4.90;94.40
19174;DHT22;9719;49.322;8.536;2023-02-11T08:57:34;5.30;93.20
19174;DHT22;9719;49.322;8.536;2023-02-11T09:02:35;5.50;92.40
19174;DHT22;9719;49.322;8.536;2023-02-11T09:07:38;5.60;91.50
19174;DHT22;9719;49.322;8.536;2023-02-11T09:12:40;5.80;91.30
19174;DHT22;9719;49.322;8.536;2023-02-11T09:17:42;5.80;91.20
19174;DHT22;9719;49.322;8.536;2023-02-11T09:22:45;6.10;90.70
19174;DHT22;9719;49.322;8.536;2023-02-11T09:27:46;6.30;90.10
19174;DHT22;9719;49.322;8.536;2023-02-11T09:32:49;6.80;89.40
19174;DHT22;9719;49.322;8.536;2023-02-11T09:37:52;8.90;88.90
19174;DHT22;9719;49.322;8.536;2023-02-11T09:42:56;11.40;82.10
19174;DHT22;9719;49.322;8.536;2023-02-11T09:48:09;13.20;76.80
19174;DHT22;9719;49.322;8.536;2023-02-11T09:53:20;14.20;66.40
19174;DHT22;9719;49.322;8.536;2023-02-11T09:58:26;13.10;60.70
19174;DHT22;9719;49.322;8.536;2023-02-11T10:03:49;12.70;61.20
19174;DHT22;9719;49.322;8.536;2023-02-11T10:09:07;12.00;61.00
19174;DHT22;9719;49.322;8.536;2023-02-11T10:14:22;12.40;62.50
19174;DHT22;9719;49.322;8.536;2023-02-11T10:19:45;12.70;60.00
19174;DHT22;9719;49.322;8.536;2023-02-11T10:24:54;13.60;60.10
19174;DHT22;9719;49.322;8.536;2023-02-11T10:30:00;13.90;58.70
19174;DHT22;9719;49.322;8.536;2023-02-11T10:35:13;14.20;58.20
19174;DHT22;9719;49.322;8.536;2023-02-11T10:40:19;14.70;57.60
19174;DHT22;9719;49.322;8.536;2023-02-11T10:45:26;15.50;56.70
19174;DHT22;9719;49.322;8.536;2023-02-11T10:50:30;16.40;55.20
19174;DHT22;9719;49.322;8.536;2023-02-11T10:55:34;17.70;53.50
19174;DHT22;9719;49.322;8.536;2023-02-11T11:00:38;19.90;50.80
19174;DHT22;9719;49.322;8.536;2023-02-11T11:05:46;21.30;47.00
19174;DHT22;9719;49.322;8.536;2023-02-11T11:11:01;21.70;43.90
19174;DHT22;9719;49.322;8.536;2023-02-11T11:16:22;21.40;42.60
19174;DHT22;9719;49.322;8.536;2023-02-11T11:21:27;20.80;42.20
19174;DHT22;9719;49.322;8.536;2023-02-11T11:26:39;20.90;42.70
19174;DHT22;9719;49.322;8.536;2023-02-11T11:31:47;20.90;43.30
19174;DHT22;9719;49.322;8.536;2023-02-11T11:36:49;22.40;42.00
19174;DHT22;9719;49.322;8.536;2023-02-11T11:41:54;24.50;41.30
19174;DHT22;9719;49.322;8.536;2023-02-11T11:47:20;23.80;37.80
19174;DHT22;9719;49.322;8.536;2023-02-11T11:52:32;23.20;39.20
19174;DHT22;9719;49.322;8.536;2023-02-11T11:57:37;25.40;39.90
19174;DHT22;9719;49.322;8.536;2023-02-11T12:08:16;30.90;35.10
19174;DHT22;9719;49.322;8.536;2023-02-11T12:13:34;33.20;32.70
19174;DHT22;9719;49.322;8.536;2023-02-11T12:24:17;37.00;28.80
19174;DHT22;9719;49.322;8.536;2023-02-11T12:29:31;35.10;26.70
19174;DHT22;9719;49.322;8.536;2023-02-11T12:34:52;33.50;27.50
19174;DHT22;9719;49.322;8.536;2023-02-11T12:40:02;31.90;27.60
19174;DHT22;9719;49.322;8.536;2023-02-11T12:45:19;30.10;28.90
19174;DHT22;9719;49.322;8.536;2023-02-11T12:50:29;28.90;29.60
19174;DHT22;9719;49.322;8.536;2023-02-11T12:55:36;28.00;30.40
19174;DHT22;9719;49.322;8.536;2023-02-11T13:00:45;27.90;31.10
19174;DHT22;9719;49.322;8.536;2023-02-11T13:05:51;28.30;30.90
19174;DHT22;9719;49.322;8.536;2023-02-11T13:10:57;28.10;30.80
19174;DHT22;9719;49.322;8.536;2023-02-11T13:16:03;28.00;31.20
19174;DHT22;9719;49.322;8.536;2023-02-11T13:21:32;27.40;31.10
19174;DHT22;9719;49.322;8.536;2023-02-11T13:26:41;26.80;31.90
19174;DHT22;9719;49.322;8.536;2023-02-11T13:31:53;26.00;32.90
19174;DHT22;9719;49.322;8.536;2023-02-11T13:36:56;25.00;33.60
19174;DHT22;9719;49.322;8.536;2023-02-11T13:42:02;24.00;34.50
19174;DHT22;9719;49.322;8.536;2023-02-11T13:47:06;23.10;35.50
19174;DHT22;9719;49.322;8.536;2023-02-11T13:52:22;22.20;36.60
19174;DHT22;9719;49.322;8.536;2023-02-11T13:57:32;21.20;38.30
19174;DHT22;9719;49.322;8.536;2023-02-11T14:02:36;20.60;39.60
19174;DHT22;9719;49.322;8.536;2023-02-11T14:08:16;20.30;40.70
19174;DHT22;9719;49.322;8.536;2023-02-11T14:13:36;20.40;42.00
19174;DHT22;9719;49.322;8.536;2023-02-11T14:19:00;20.10;41.20
19174;DHT22;9719;49.322;8.536;2023-02-11T14:24:44;19.40;42.50
19174;DHT22;9719;49.322;8.536;2023-02-11T14:29:55;18.70;43.50
19174;DHT22;9719;49.322;8.536;2023-02-11T14:35:06;17.80;44.80
19174;DHT22;9719;49.322;8.536;2023-02-11T14:40:18;16.90;45.80
19174;DHT22;9719;49.322;8.536;2023-02-11T14:45:25;16.00;47.60
19174;DHT22;9719;49.322;8.536;2023-02-11T14:50:32;15.40;48.60
19174;DHT22;9719;49.322;8.536;2023-02-11T14:55:38;14.80;49.80
19174;DHT22;9719;49.322;8.536;2023-02-11T15:00:48;14.40;50.90
19174;DHT22;9719;49.322;8.536;2023-02-11T15:05:55;14.00;51.90
19174;DHT22;9719;49.322;8.536;2023-02-11T15:10:57;13.70;52.90
19174;DHT22;9719;49.322;8.536;2023-02-11T15:16:05;13.40;53.50
19174;DHT22;9719;49.322;8.536;2023-02-11T15:21:10;13.10;54.10
19174;DHT22;9719;49.322;8.536;2023-02-11T15:26:12;12.90;55.10
19174;DHT22;9719;49.322;8.536;2023-02-11T15:31:16;12.70;55.70
19174;DHT22;9719;49.322;8.536;2023-02-11T15:36:22;12.50;56.10
19174;DHT22;9719;49.322;8.536;2023-02-11T15:41:34;12.40;56.90
19174;DHT22;9719;49.322;8.536;2023-02-11T15:46:37;12.20;57.60
19174;DHT22;9719;49.322;8.536;2023-02-11T15:51:44;11.90;58.80
19174;DHT22;9719;49.322;8.536;2023-02-11T15:56:48;11.80;58.90
19174;DHT22;9719;49.322;8.536;2023-02-11T16:01:51;11.60;59.20
19174;DHT22;9719;49.322;8.536;2023-02-11T16:06:55;11.60;59.40
19174;DHT22;9719;49.322;8.536;2023-02-11T16:11:58;11.50;59.80
19174;DHT22;9719;49.322;8.536;2023-02-11T16:17:03;11.30;60.20
19174;DHT22;9719;49.322;8.536;2023-02-11T16:22:09;11.20;60.80
19174;DHT22;9719;49.322;8.536;2023-02-11T16:27:20;11.10;61.50
19174;DHT22;9719;49.322;8.536;2023-02-11T16:32:24;11.00;62.40
19174;DHT22;9719;49.322;8.536;2023-02-11T16:37:27;10.90;62.80
19174;DHT22;9719;49.322;8.536;2023-02-11T16:42:29;10.80;63.60
19174;DHT22;9719;49.322;8.536;2023-02-11T16:47:33;10.70;64.00
19174;DHT22;9719;49.322;8.536;2023-02-11T16:52:36;10.60;64.70
19174;DHT22;9719;49.322;8.536;2023-02-11T16:57:38;10.50;65.90
19174;DHT22;9719;49.322;8.536;2023-02-11T17:02:40;10.30;66.40
19174;DHT22;9719;49.322;8.536;2023-02-11T17:07:43;10.30;66.70
19174;DHT22;9719;49.322;8.536;2023-02-11T17:12:45;10.20;67.20
19174;DHT22;9719;49.322;8.536;2023-02-11T17:17:47;10.20;67.80
19174;DHT22;9719;49.322;8.536;2023-02-11T17:22:50;10.10;68.60
19174;DHT22;9719;49.322;8.536;2023-02-11T17:27:52;10.10;68.60
19174;DHT22;9719;49.322;8.536;2023-02-11T17:32:54;10.10;68.80
19174;DHT22;9719;49.322;8.536;2023-02-11T17:37:57;10.00;69.20
19174;DHT22;9719;49.322;8.536;2023-02-11T17:42:58;10.00;69.70
19174;DHT22;9719;49.322;8.536;2023-02-11T17:48:00;10.00;70.90
19174;DHT22;9719;49.322;8.536;2023-02-11T17:53:03;9.90;70.90
19174;DHT22;9719;49.322;8.536;2023-02-11T17:58:05;9.80;71.10
19174;DHT22;9719;49.322;8.536;2023-02-11T18:03:06;9.90;71.60
19174;DHT22;9719;49.322;8.536;2023-02-11T18:08:09;9.80;72.10
19174;DHT22;9719;49.322;8.536;2023-02-11T18:13:11;9.80;72.40
19174;DHT22;9719;49.322;8.536;2023-02-11T18:18:13;9.70;72.80
19174;DHT22;9719;49.322;8.536;2023-02-11T18:23:16;9.70;73.00
19174;DHT22;9719;49.322;8.536;2023-02-11T18:28:18;9.70;73.50
19174;DHT22;9719;49.322;8.536;2023-02-11T18:33:19;9.80;73.70
19174;DHT22;9719;49.322;8.536;2023-02-11T18:38:23;9.80;74.00
19174;DHT22;9719;49.322;8.536;2023-02-11T18:43:25;9.80;74.10
19174;DHT22;9719;49.322;8.536;2023-02-11T18:48:30;9.80;75.10
19174;DHT22;9719;49.322;8.536;2023-02-11T18:53:33;9.80;74.90
19174;DHT22;9719;49.322;8.536;2023-02-11T18:58:35;9.80;75.10
19174;DHT22;9719;49.322;8.536;2023-02-11T19:03:37;9.70;75.50
19174;DHT22;9719;49.322;8.536;2023-02-11T19:08:40;9.70;75.80
19174;DHT22;9719;49.322;8.536;2023-02-11T19:13:42;9.60;76.20
19174;DHT22;9719;49.322;8.536;2023-02-11T19:18:44;9.50;76.70
19174;DHT22;9719;49.322;8.536;2023-02-11T19:23:47;9.40;76.80
19174;DHT22;9719;49.322;8.536;2023-02-11T19:28:49;9.30;77.10
19174;DHT22;9719;49.322;8.536;2023-02-11T19:33:50;9.30;78.60
19174;DHT22;9719;49.322;8.536;2023-02-11T19:38:53;9.20;78.40
19174;DHT22;9719;49.322;8.536;2023-02-11T19:43:55;9.20;79.00
19174;DHT22;9719;49.322;8.536;2023-02-11T19:48:58;9.10;79.10
19174;DHT22;9719;49.322;8.536;2023-02-11T19:54:01;9.00;79.60
19174;DHT22;9719;49.322;8.536;2023-02-11T19:59:03;8.90;80.40
19174;DHT22;9719;49.322;8.536;2023-02-11T20:04:08;8.80;80.90
19174;DHT22;9719;49.322;8.536;2023-02-11T20:09:13;8.80;81.40
19174;DHT22;9719;49.322;8.536;2023-02-11T20:14:15;8.80;82.00
19174;DHT22;9719;49.322;8.536;2023-02-11T20:19:18;8.80;82.10
19174;DHT22;9719;49.322;8.536;2023-02-11T20:24:23;8.80;82.30
19174;DHT22;9719;49.322;8.536;2023-02-11T20:29:25;8.80;82.50
19174;DHT22;9719;49.322;8.536;2023-02-11T20:34:26;8.80;82.60
19174;DHT22;9719;49.322;8.536;2023-02-11T20:39:30;8.80;82.80
19174;DHT22;9719;49.322;8.536;2023-02-11T20:44:31;8.90;83.00
19174;DHT22;9719;49.322;8.536;2023-02-11T20:49:36;8.90;83.20
19174;DHT22;9719;49.322;8.536;2023-02-11T20:54:39;8.90;83.50
19174;DHT22;9719;49.322;8.536;2023-02-11T20:59:40;8.90;83.90
19174;DHT22;9719;49.322;8.536;2023-02-11T21:04:42;8.90;84.20
19174;DHT22;9719;49.322;8.536;2023-02-11T21:09:45;8.90;84.20
19174;DHT22;9719;49.322;8.536;2023-02-11T21:14:47;8.90;84.60
19174;DHT22;9719;49.322;8.536;2023-02-11T21:19:48;8.90;84.60
19174;DHT22;9719;49.322;8.536;2023-02-11T21:24:51;8.90;84.80
19174;DHT22;9719;49.322;8.536;2023-02-11T21:29:53;8.90;85.10
19174;DHT22;9719;49.322;8.536;2023-02-11T21:34:54;8.90;85.10
19174;DHT22;9719;49.322;8.536;2023-02-11T21:39:57;8.90;85.40
19174;DHT22;9719;49.322;8.536;2023-02-11T21:44:59;9.00;85.60
19174;DHT22;9719;49.322;8.536;2023-02-11T21:50:01;8.90;85.80
19174;DHT22;9719;49.322;8.536;2023-02-11T21:55:05;8.90;86.00
19174;DHT22;9719;49.322;8.536;2023-02-11T22:00:08;8.90;86.20
19174;DHT22;9719;49.322;8.536;2023-02-11T22:05:10;8.90;86.40
19174;DHT22;9719;49.322;8.536;2023-02-11T22:10:13;8.80;86.70
19174;DHT22;9719;49.322;8.536;2023-02-11T22:15:15;8.80;87.00
19174;DHT22;9719;49.322;8.536;2023-02-11T22:20:17;8.80;87.00
19174;DHT22;9719;49.322;8.536;2023-02-11T22:25:20;8.80;87.50
19174;DHT22;9719;49.322;8.536;2023-02-11T22:30:22;8.80;87.70
19174;DHT22;9719;49.322;8.536;2023-02-11T22:35:23;8.60;89.10
19174;DHT22;9719;49.322;8.536;2023-02-11T22:40:26;8.60;89.10
19174;DHT22;9719;49.322;8.536;2023-02-11T22:45:28;8.50;89.70
19174;DHT22;9719;49.322;8.536;2023-02-11T22:50:30;8.40;90.00
19174;DHT22;9719;49.322;8.536;2023-02-11T22:55:36;8.40;90.20
19174;DHT22;9719;49.322;8.536;2023-02-11T23:00:40;8.40;90.50
19174;DHT22;9719;49.322;8.536;2023-02-11T23:05:42;8.40;90.90
19174;DHT22;9719;49.322;8.536;2023-02-11T23:10:45;8.40;91.10
19174;DHT22;9719;49.322;8.536;2023-02-11T23:15:47;8.30;91.30
19174;DHT22;9719;49.322;8.536;2023-02-11T23:20:48;8.30;91.20
19174;DHT22;9719;49.322;8.536;2023-02-11T23:25:51;8.30;91.40
19174;DHT22;9719;49.322;8.536;2023-02-11T23:30:53;8.30;91.60
19174;DHT22;9719;49.322;8.536;2023-02-11T23:35:55;8.30;91.70
19174;DHT22;9719;49.322;8.536;2023-02-11T23:40:58;8.30;91.90
19174;DHT22;9719;49.322;8.536;2023-02-11T23:46:00;8.30;91.90
19174;DHT22;9719;49.322;8.536;2023-02-11T23:51:02;8.30;92.10
19174;DHT22;9719;49.322;8.536;2023-02-11T23:56:09;8.30;92.00
